• Join FlightAware (Why Join?)
  • Login
  • US Flag 
10:35PM EDT


 

Airport Tracker/Info


-or-


 

Live Flight TrackerFlight Track Log ✈ UAL395 ✈ 26-Apr-2013 ✈ CYYC - KIAH

Flight Track Log - Related Links

Times and Time Zones

All times are in EDT time to prevent confusion due to time zone crossing. See the UAL395 flight status page for this flight to view local times or setup timezone preferences in your user account.

Time Position Orientation Groundspeed Altitude Reporting Facility
EDT Latitude Longitude Course Direction KTS MPH feet Rate Location/Type
07:02PM 51.1333 -114.1167 165° South 180 207 5,500  Level Edmonton Center
07:03PM 51.1333 -114.2000 270° West 200 230 7,700 2,100 Climbing Edmonton Center
07:04PM 50.7741 -113.8563 166° South  Level FlightAware Approximate
07:04PM 51.0667 -114.2000 180° South 280 322 9,700  Level Edmonton Center
07:05PM 50.6609 -113.8110 166° South  Level FlightAware Approximate
07:05PM 50.9833 -114.1500 159° South 300 345 13,000  Level Edmonton Center
07:06PM 50.5480 -113.7646 148° Southeast  Level FlightAware Approximate
07:06PM 50.9167 -114.1000 155° Southeast 330 380 15,500  Level Edmonton Center
07:07PM 50.4432 -113.7113 165° South  Level FlightAware Approximate
07:07PM 50.8167 -114.0500 162° South 420 483 16,600  Level Edmonton Center
07:08PM 50.7000 -114.0000 165° South 430 495 18,900 2,040 Climbing Edmonton Center
07:09PM 50.5667 -113.9333 162° South 440 506 20,700 2,160 Climbing Edmonton Center
07:10PM 50.4500 -113.8833 165° South 440 506 23,300 2,220 Climbing Edmonton Center
07:11PM 50.3333 -113.8000 155° Southeast 440 506 25,200 1,500 Climbing Edmonton Center
07:12PM 50.2167 -113.7167 155° Southeast 460 529 26,400 1,260 Climbing Edmonton Center
07:13PM 50.1167 -113.6000 143° Southeast 480 552 27,800 1,440 Climbing Edmonton Center
07:14PM 50.0000 -113.4667 144° Southeast 480 552 29,300 1,380 Climbing Edmonton Center
07:15PM 49.9000 -113.3500 143° Southeast 480 552 30,600 1,260 Climbing Edmonton Center
07:16PM 49.8000 -113.2167 139° Southeast 470 541 31,900 1,140 Climbing Edmonton Center
07:17PM 49.6833 -113.1167 151° Southeast 470 541 32,900 900 Climbing Edmonton Center
07:18PM 49.5667 -113.0000 147° Southeast 470 541 33,800 1,020 Climbing Edmonton Center
07:19PM 49.4667 -112.8833 143° Southeast 470 541 35,000 720 Climbing Edmonton Center
07:20PM 49.3500 -112.7500 143° Southeast 470 541 35,300 660 Climbing Edmonton Center
07:21PM 49.2667 -112.6333 138° Southeast 470 541 36,400 720 Climbing Edmonton Center
07:22PM 49.1333 -112.5167 150° Southeast 470 541 36,800 300 Climbing Edmonton Center
07:23PM 49.0500 -112.3833 134° Southeast 470 541 37,000 60 Climbing Edmonton Center
07:24PM 48.9333 -112.2667 147° Southeast 480 552 37,000  Level Edmonton Center
07:25PM 48.8500 -112.1000 127° Southeast 480 552 37,000  Level Edmonton Center
07:26PM 48.7500 -111.9833 142° Southeast 470 541 37,000  Level Edmonton Center
07:27PM 48.6667 -111.8167 127° Southeast 470 541 37,000  Level Edmonton Center
07:28PM 48.5667 -111.6833 139° Southeast 470 541 37,000  Level Edmonton Center
07:29PM 48.4833 -111.5333 130° Southeast 480 552 37,100  Climbing Edmonton Center
07:30PM 48.3833 -111.4000 138° Southeast 480 552 37,000 -120 Descending Edmonton Center
07:30PM 48.4017 -111.3536 59° Northeast 480 552 37,000 -120 Level Salt Lake Center
07:31PM 48.3086 -111.2097 134° Southeast 480 552 36,900 -60 Descending Salt Lake Center
07:32PM 48.2153 -111.0675 135° Southeast 478 550 36,900  Level Salt Lake Center
07:33PM 48.1222 -110.9250 134° Southeast 477 549 37,000  Climbing Salt Lake Center
07:34PM 48.0278 -110.7828 135° Southeast 479 551 37,000 -60 Level Salt Lake Center
07:35PM 47.9342 -110.6433 135° Southeast 476 548 36,900 -60 Descending Salt Lake Center
07:36PM 47.8219 -110.4753 135° Southeast 474 545 36,900  Level Salt Lake Center
07:37PM 47.7267 -110.3344 135° Southeast 478 550 37,000  Climbing Salt Lake Center
07:38PM 47.6322 -110.1936 135° Southeast 480 552 36,900  Descending Salt Lake Center
07:39PM 47.5356 -110.0528 135° Southeast 485 558 37,000  Climbing Salt Lake Center
07:40PM 47.4397 -109.9161 136° Southeast 478 550 37,000  Level Salt Lake Center
07:41PM 47.3419 -109.7819 137° Southeast 481 554 37,000 -60 Level Salt Lake Center
07:43PM 47.2450 -109.6489 137° Southeast 478 550 36,900  Descending Salt Lake Center
07:44PM 47.1303 -109.4867 136° Southeast 478 550 37,000  Climbing Salt Lake Center
07:45PM 47.0322 -109.3553 138° Southeast 478 550 37,000  Level Salt Lake Center
07:46PM 46.9342 -109.2242 138° Southeast 478 550 37,000  Level Salt Lake Center
07:47PM 46.8372 -109.0942 137° Southeast 475 547 37,000 -60 Level Salt Lake Center
07:48PM 46.7386 -108.9678 139° Southeast 472 543 36,900  Descending Salt Lake Center
07:49PM 46.6294 -108.8175 137° Southeast 482 555 37,000  Climbing Salt Lake Center
07:50PM 46.5358 -108.6942 138° Southeast 476 548 37,000  Level Salt Lake Center
07:51PM 46.4258 -108.5494 138° Southeast 477 549 37,000  Level Salt Lake Center
07:52PM 46.3317 -108.4275 138° Southeast 474 545 37,000  Level Salt Lake Center
07:53PM 46.2383 -108.3053 138° Southeast 473 544 37,000  Level Salt Lake Center
07:54PM 46.1303 -108.1631 138° Southeast 471 542 37,000  Level Salt Lake Center
07:55PM 46.0364 -108.0439 139° Southeast 471 542 37,000  Level Salt Lake Center
07:56PM 45.9303 -107.9025 137° Southeast 464 534 37,000  Level Salt Lake Center
07:57PM 45.8403 -107.7764 136° Southeast 469 540 37,000  Level Salt Lake Center
07:58PM 45.7347 -107.6336 137° Southeast 468 539 37,000  Level Salt Lake Center
07:59PM 45.6458 -107.5114 136° Southeast 463 533 37,000  Level Salt Lake Center
08:00PM 45.5553 -107.3906 137° Southeast 463 533 37,000  Level Salt Lake Center
08:01PM 45.4500 -107.2486 137° Southeast 465 535 37,000  Level Salt Lake Center
08:02PM 45.3606 -107.1264 136° Southeast 466 536 37,000  Level Salt Lake Center
08:03PM 45.2567 -106.9869 137° Southeast 459 528 37,000  Level Salt Lake Center
08:04PM 45.1667 -106.8678 137° Southeast 460 529 37,000  Level Salt Lake Center
08:05PM 45.0772 -106.7492 137° Southeast 459 528 37,000  Level Salt Lake Center
08:06PM 44.9731 -106.6133 137° Southeast 457 526 37,000  Level Salt Lake Center
08:07PM 44.8844 -106.4972 137° Southeast 455 524 37,000  Level Salt Lake Center
08:08PM 44.7808 -106.3614 137° Southeast 455 524 37,000  Level Salt Lake Center
08:09PM 44.6900 -106.2450 138° Southeast 460 529 37,000  Level Salt Lake Center
08:10PM 44.5858 -106.1097 137° Southeast 457 526 37,000  Level Salt Lake Center
08:11PM 44.4878 -105.9903 139° Southeast 459 528 37,000  Level Salt Lake Center
08:12PM 44.3836 -105.9003 148° Southeast 460 529 37,000  Level Salt Lake Center
08:13PM 44.3300 -105.8567 150° Southeast 461 531 37,000  Level Denver Center
08:14PM 44.2242 -105.7694 149° Southeast 461 531 37,000  Level Denver Center
08:15PM 44.1022 -105.6664 149° Southeast 461 531 37,000  Level Denver Center
08:16PM 43.9964 -105.5814 150° Southeast 459 528 37,000  Level Denver Center
08:17PM 43.8744 -105.4806 149° Southeast 458 527 37,000  Level Denver Center
08:18PM 43.7686 -105.3933 149° Southeast 461 531 37,000  Level Denver Center
08:19PM 43.6597 -105.3072 150° Southeast 468 539 37,000  Level Denver Center
08:20PM 43.5339 -105.2031 149° Southeast 472 543 37,000  Level Denver Center
08:21PM 43.4253 -105.1169 150° Southeast 471 542 37,100  Climbing Denver Center
08:22PM 43.2992 -105.0144 149° Southeast 472 543 37,000 -60 Descending Denver Center
08:23PM 43.1908 -104.9275 150° Southeast 471 542 37,000  Level Denver Center
08:24PM 43.0650 -104.8278 150° Southeast 469 540 37,000  Level Denver Center
08:25PM 42.9567 -104.7428 150° Southeast 468 539 37,000  Level Denver Center
08:26PM 42.8317 -104.6444 150° Southeast 465 535 37,000  Level Denver Center
08:27PM 42.7214 -104.5656 152° Southeast 464 534 37,000  Level Denver Center
08:28PM 42.6092 -104.4875 153° Southeast 460 529 37,000  Level Denver Center
08:29PM 42.4778 -104.3972 153° Southeast 465 535 37,000  Level Denver Center
08:30PM 42.3708 -104.3267 154° Southeast 450 518 37,000  Level Denver Center
08:31PM 42.2631 -104.2536 153° Southeast 452 520 37,000  Level Denver Center
08:32PM 42.1375 -104.1692 153° Southeast 450 518 37,000  Level Denver Center
08:33PM 42.0294 -104.0958 153° Southeast 453 521 37,000  Level Denver Center
08:34PM 41.9022 -104.0117 154° Southeast 457 526 37,000  Level Denver Center
08:35PM 41.7928 -103.9383 153° Southeast 457 526 37,000  Level Denver Center
08:36PM 41.6656 -103.8544 154° Southeast 458 527 37,000  Level Denver Center
08:38PM 41.5572 -103.7825 154° Southeast 455 524 37,000  Level Denver Center
08:39PM 41.4289 -103.6981 154° Southeast 459 528 37,000  Level Denver Center
08:40PM 41.3181 -103.6258 154° Southeast 464 534 37,000  Level Denver Center
08:41PM 41.2072 -103.5533 154° Southeast 464 534 37,000  Level Denver Center
08:42PM 41.0778 -103.4700 154° Southeast 462 532 37,000  Level Denver Center
08:43PM 40.9619 -103.3953 154° Southeast 465 535 37,000  Level Denver Center
08:44PM 40.8444 -103.3192 154° Southeast 465 535 37,000  Level Denver Center
08:45PM 40.7294 -103.2450 154° Southeast 457 526 37,000 -60 Level Denver Center
08:46PM 40.6139 -103.1731 155° Southeast 454 522 36,900  Descending Denver Center
08:47PM 40.4969 -103.1056 156° South 455 524 37,000  Climbing Denver Center
08:48PM 40.3772 -103.0372 156° South 463 533 37,000  Level Denver Center
08:49PM 40.2369 -102.9583 157° South 465 535 37,100  Climbing Denver Center
08:50PM 40.1175 -102.8903 156° South 463 533 37,000 -60 Descending Denver Center
08:51PM 39.9983 -102.8236 157° South 461 531 37,000  Level Denver Center
08:52PM 39.8781 -102.7558 157° South 464 534 37,000  Level Denver Center
08:53PM 39.7608 -102.6903 157° South 467 537 37,000  Level Denver Center
08:54PM 39.6283 -102.6156 157° South 466 536 37,000  Level Denver Center
08:55PM 39.5169 -102.5556 157° South 461 531 37,000  Level Denver Center
08:56PM 39.3981 -102.4886 156° South 462 532 37,000  Level Denver Center
08:57PM 39.2733 -102.4197 157° South 467 537 37,000  Level Denver Center
08:58PM 39.1394 -102.3469 157° South 468 539 37,100  Climbing Denver Center
08:59PM 39.0253 -102.2858 157° South 466 536 37,000 -60 Descending Denver Center
09:00PM 38.9125 -102.2231 157° South 462 532 37,000  Level Denver Center
09:01PM 38.7814 -102.1514 157° South 458 527 37,000  Level Denver Center
09:02PM 38.6703 -102.0919 157° South 454 522 37,000  Level Denver Center
09:03PM 38.5411 -102.0217 157° South 453 521 37,000  Level Denver Center
09:04PM 38.4347 -101.9461 151° Southeast 459 528 37,000  Level Denver Center
09:05PM 38.3158 -101.8478 147° Southeast 458 527 37,000  Level Denver Center
09:06PM 38.2144 -101.7636 147° Southeast 457 526 37,000  Level Denver Center
09:07PM 38.1108 -101.6786 147° Southeast 461 531 37,000  Level Denver Center
09:08PM 37.9883 -101.5792 147° Southeast 467 537 37,000  Level Denver Center
09:09PM 37.8842 -101.4931 147° Southeast 468 539 37,000  Level Denver Center
09:10PM 37.8486 -101.4647 148° Southeast 469 540 37,000  Level Kansas City Center
09:11PM 37.7442 -101.3786 147° Southeast 470 541 37,000  Level Kansas City Center
09:12PM 37.6225 -101.2817 148° Southeast 469 540 37,000  Level Kansas City Center
09:13PM 37.5194 -101.1969 147° Southeast 467 537 37,000  Level Kansas City Center
09:14PM 37.3989 -101.0997 147° Southeast 465 535 37,000  Level Kansas City Center
09:15PM 37.2953 -101.0169 148° Southeast 465 535 37,000  Level Kansas City Center
09:16PM 37.1925 -100.9333 147° Southeast 463 533 37,000  Level Kansas City Center
09:17PM 37.0700 -100.8364 148° Southeast 466 536 37,000  Level Kansas City Center
09:18PM 36.9644 -100.7531 148° Southeast 468 539 37,000  Level Kansas City Center
09:19PM 36.8414 -100.6556 148° Southeast 470 541 37,000  Level Kansas City Center
09:20PM 36.7344 -100.5697 147° Southeast 475 547 37,000  Level Kansas City Center
09:21PM 36.6269 -100.4867 148° Southeast 475 547 37,000  Level Kansas City Center
09:22PM 36.5025 -100.3892 148° Southeast 474 545 37,000  Level Kansas City Center
09:23PM 36.4033 -100.3122 148° Southeast 470 541 37,000 -60 Level Kansas City Center
09:24PM 36.2711 -100.2083 148° Southeast 469 540 36,900  Descending Kansas City Center
09:25PM 36.1589 -100.1239 149° Southeast 471 542 37,000  Climbing Kansas City Center
09:26PM 36.0483 -100.0381 148° Southeast 471 542 37,000  Level Kansas City Center
09:27PM 35.9386 -99.9486 147° Southeast 472 543 37,000  Level Kansas City Center
09:28PM 35.8319 -99.8561 145° Southeast 471 542 37,000  Level Kansas City Center
09:29PM 35.7250 -99.7653 145° Southeast 470 541 37,000  Level Kansas City Center
09:30PM 35.6214 -99.6786 146° Southeast 473 544 37,000  Level Fort Worth Center
09:31PM 35.5144 -99.5889 146° Southeast 468 539 37,000  Level Fort Worth Center
09:32PM 35.4117 -99.4994 145° Southeast 462 532 37,000  Level Fort Worth Center
09:33PM 35.3047 -99.4106 146° Southeast 462 532 37,000  Level Fort Worth Center
09:34PM 35.1975 -99.3242 147° Southeast 462 532 37,000  Level Fort Worth Center
09:35PM 35.0925 -99.2328 145° Southeast 462 532 37,000  Level Fort Worth Center
09:36PM 34.9833 -99.1444 146° Southeast 462 532 37,000  Level Fort Worth Center
09:37PM 34.8739 -99.0511 145° Southeast 467 537 37,000  Level Fort Worth Center
09:38PM 34.7564 -98.9553 146° Southeast 467 537 37,000  Level Fort Worth Center
09:39PM 34.6469 -98.8650 146° Southeast 472 543 37,000  Level Fort Worth Center
09:40PM 34.5497 -98.7903 148° Southeast 465 535 37,000  Level Fort Worth Center
09:41PM 34.4400 -98.7003 146° Southeast 473 544 37,000  Level Fort Worth Center
09:42PM 34.3325 -98.6131 146° Southeast 478 550 37,000  Level Fort Worth Center
09:43PM 34.2225 -98.5261 147° Southeast 478 550 37,000  Level Fort Worth Center
09:44PM 34.1150 -98.4344 145° Southeast 478 550 37,000  Level Fort Worth Center
09:45PM 33.9947 -98.3353 146° Southeast 478 550 37,000  Level Fort Worth Center
09:46PM 33.8847 -98.2467 146° Southeast 478 550 37,000  Level Fort Worth Center
09:47PM 33.7767 -98.1556 145° Southeast 478 550 37,000  Level Fort Worth Center
09:48PM 33.6644 -98.0722 148° Southeast 478 550 37,000  Level Fort Worth Center
09:49PM 33.5542 -97.9792 145° Southeast 478 550 37,000  Level Fort Worth Center
09:50PM 33.4483 -97.8864 144° Southeast 478 550 37,000  Level Fort Worth Center
09:51PM 33.3506 -97.7667 134° Southeast 490 564 37,100  Climbing Fort Worth Center
09:52PM 33.2672 -97.6619 134° Southeast 490 564 37,000 -60 Descending Fort Worth Center
09:53PM 33.1736 -97.5400 133° Southeast 490 564 37,000  Level Fort Worth Center
09:54PM 33.0817 -97.4233 133° Southeast 485 558 37,000  Level Fort Worth Center
09:55PM 32.9772 -97.2872 132° Southeast 485 558 37,000  Level Fort Worth Center
09:56PM 32.8769 -97.1783 138° Southeast 493 567 37,000  Level Fort Worth Center
09:57PM 32.7642 -97.0922 147° Southeast 488 562 37,000  Level Fort Worth Center
09:58PM 32.6469 -97.0114 150° Southeast 483 556 37,000  Level Fort Worth Center
09:59PM 32.5486 -96.9403 149° Southeast 476 548 37,000  Level Fort Worth Center
10:00PM 32.4333 -96.8619 150° Southeast 470 541 37,000  Level Fort Worth Center
10:01PM 32.3225 -96.7842 149° Southeast 465 535 37,000  Level Fort Worth Center
10:02PM 32.2092 -96.7086 151° Southeast 465 535 37,000 -300 Level Fort Worth Center
10:03PM 32.0881 -96.6656 163° South 465 535 36,500 -780 Descending Fort Worth Center
10:04PM 31.9644 -96.6297 166° South 458 527 35,500 -1,200 Descending Fort Worth Center
10:05PM 31.8350 -96.5992 169° South 446 513 34,200 -1,320 Descending Fort Worth Center
10:06PM 31.7114 -96.5636 166° South 451 519 32,900 -2,040 Descending Fort Worth Center
10:07PM 31.5417 -96.5194 167° South 462 532 29,400 -1,620 Descending Houston Center
10:08PM 31.4192 -96.4758 163° South 456 525 29,000 -240 Descending Houston Center
10:09PM 31.2978 -96.4294 162° South 455 524 29,000 -600 Level Houston Center
10:10PM 31.1753 -96.4250 178° South 437 503 27,900 -1,920 Descending Houston Center
10:11PM 31.0756 -96.4928 210° Southwest 412 474 25,200 -2,160 Descending Houston Center
10:12PM 30.9608 -96.4992 183° South 423 487 23,600 -2,280 Descending Houston Center
10:14PM 30.8692 -96.4047 139° Southeast 447 514 20,600 -2,580 Descending Houston Center
10:15PM 30.7872 -96.2983 132° Southeast 439 505 18,400 -2,100 Descending Houston Center
10:16PM 30.7136 -96.2017 132° Southeast 399 459 16,400 -2,040 Descending Houston Center
10:17PM 30.6458 -96.1111 131° Southeast 373 429 14,300 -2,220 Descending Houston Center
10:17PM 30.6067 -96.0611 132° Southeast 363 418 13,100 -2,100 Descending Houston Center
10:18PM 30.5753 -96.0211 132° Southeast 364 419 12,200 -1,680 Descending Houston Center
10:19PM 30.5100 -95.9367 132° Southeast 354 407 10,600 -1,140 Descending Houston Center
10:20PM 30.4517 -95.8611 132° Southeast 319 367 10,000 -600 Descending Houston Center
10:21PM 30.3828 -95.8125 149° Southeast 298 343 9,400 -960 Descending Houston Center
10:22PM 30.3064 -95.7847 163° South 289 333 8,100 -1,200 Descending Houston Center
10:22PM 30.2772 -95.7722 160° South 277 319 7,900 -1,020 Descending Houston Center
10:23PM 30.2356 -95.7553 161° South 276 318 7,100 -1,380 Descending Houston Center
10:23PM 30.2053 -95.7419 159° South 262 302 6,500 -1,200 Descending Houston Center
10:24PM 30.1703 -95.7292 162° South 253 291 5,900 -1,500 Descending Houston Center
10:24PM 30.1403 -95.7181 162° South 241 277 5,000 -1,680 Descending Houston Center
10:25PM 30.1058 -95.7050 162° South 245 282 4,200 -1,140 Descending Houston Center
10:25PM 30.0753 -95.6944 163° South 244 281 3,900 -840 Descending Houston Center
10:26PM 30.0319 -95.6797 164° South 235 270 3,400 -660 Descending Houston Center
10:26PM 30.0158 -95.6628 138° Southeast 214 246 3,200 -300 Descending Houston Center
10:27PM 30.0061 -95.6231 106° East 222 255 3,100 -120 Descending Houston Center
10:27PM 29.9953 -95.5975 116° Southeast 214 246 3,100 -120 Level Houston Center
10:28PM 29.9922 -95.5581 95° East 213 245 3,000  Descending Houston Center
10:28PM 29.9922 -95.5400 90° East 176 203 3,100 360 Climbing Houston Center